createdAt,value
2019-03-17T00:01:32.697Z,12.10
2019-03-17T00:04:00.942Z,12.13
2019-03-17T00:06:29.163Z,12.09
2019-03-17T00:08:57.401Z,12.12
2019-03-17T00:11:25.618Z,12.13
2019-03-17T00:13:53.852Z,12.11
2019-03-17T00:16:22.090Z,12.13
2019-03-17T00:18:50.304Z,12.22
2019-03-17T00:21:18.527Z,12.21
2019-03-17T00:23:46.738Z,12.20
2019-03-17T00:26:14.944Z,12.14
2019-03-17T00:28:44.356Z,12.20
2019-03-17T00:31:23.133Z,12.18
2019-03-17T00:33:42.724Z,12.24
2019-03-17T00:36:10.944Z,12.27
2019-03-17T00:38:39.151Z,12.21
2019-03-17T00:41:07.469Z,12.19
2019-03-17T00:43:36.344Z,12.19
2019-03-17T00:46:04.569Z,12.26
2019-03-17T00:48:32.783Z,12.25
2019-03-17T00:51:01.008Z,12.27
2019-03-17T00:53:29.228Z,12.30
2019-03-17T00:55:57.435Z,11.74
2019-03-17T00:58:25.653Z,12.31
2019-03-17T01:00:53.857Z,12.29
2019-03-17T01:03:22.082Z,12.35
2019-03-17T01:05:50.293Z,12.37
2019-03-17T01:08:18.539Z,12.16
2019-03-17T01:10:46.741Z,12.21
2019-03-17T01:13:14.952Z,12.19
2019-03-17T01:15:43.167Z,12.14
2019-03-17T01:18:11.383Z,12.14
2019-03-17T01:20:39.599Z,12.16
2019-03-17T01:23:07.839Z,12.16
2019-03-17T01:25:36.650Z,12.14
2019-03-17T01:28:04.873Z,12.00
2019-03-17T01:30:33.081Z,12.12
2019-03-17T01:33:01.315Z,12.10
2019-03-17T01:35:32.423Z,12.14
2019-03-17T01:37:59.471Z,12.18
2019-03-17T01:40:27.684Z,12.19
2019-03-17T01:42:55.893Z,12.14
2019-03-17T01:45:24.104Z,12.15
2019-03-17T01:47:52.342Z,12.21
2019-03-17T01:50:20.558Z,12.26
2019-03-17T01:52:48.773Z,12.25
2019-03-17T01:55:17.002Z,12.32
2019-03-17T01:57:45.234Z,12.25
2019-03-17T02:00:13.816Z,12.18
2019-03-17T02:02:42.026Z,12.27
2019-03-17T02:05:21.292Z,12.16
2019-03-17T02:07:40.175Z,12.20
2019-03-17T02:10:08.871Z,12.18
2019-03-17T02:12:37.084Z,12.20
2019-03-17T02:15:07.334Z,12.18
2019-03-17T02:17:35.544Z,12.21
2019-03-17T02:20:05.172Z,12.32
2019-03-17T02:22:33.343Z,12.28
2019-03-17T02:25:01.559Z,12.32
2019-03-17T02:27:29.772Z,12.32
2019-03-17T02:29:57.980Z,12.34
2019-03-17T02:32:26.199Z,12.30
2019-03-17T02:34:54.410Z,12.33
2019-03-17T02:37:22.636Z,12.36
2019-03-17T02:39:50.873Z,12.38
2019-03-17T02:42:19.058Z,12.33
2019-03-17T02:44:47.300Z,12.33
2019-03-17T02:47:15.514Z,12.37
2019-03-17T02:49:43.722Z,12.38
2019-03-17T02:52:11.936Z,12.40
2019-03-17T02:54:40.156Z,12.44
2019-03-17T02:57:08.366Z,12.45
2019-03-17T02:59:37.012Z,12.39
2019-03-17T03:02:05.225Z,12.38
2019-03-17T03:04:33.444Z,12.50
2019-03-17T03:07:01.665Z,12.47
2019-03-17T03:09:29.897Z,12.44
2019-03-17T03:11:58.116Z,12.34
2019-03-17T03:14:26.328Z,12.36
2019-03-17T03:16:54.559Z,12.28
2019-03-17T03:19:22.773Z,12.18
2019-03-17T03:21:50.986Z,12.05
2019-03-17T03:24:19.211Z,12.07
2019-03-17T03:26:47.431Z,11.93
2019-03-17T03:29:15.627Z,11.93
2019-03-17T03:31:43.864Z,11.80
2019-03-17T03:34:12.089Z,11.84
2019-03-17T03:36:40.291Z,11.78
2019-03-17T03:39:08.523Z,11.78
2019-03-17T03:41:37.319Z,11.70
2019-03-17T03:44:05.533Z,11.69
2019-03-17T03:46:33.762Z,11.73
2019-03-17T03:49:01.997Z,11.68
2019-03-17T03:51:30.235Z,11.67
2019-03-17T03:53:58.471Z,11.52
2019-03-17T03:56:26.670Z,11.43
2019-03-17T03:58:54.921Z,11.43
2019-03-17T04:01:23.122Z,11.36
2019-03-17T04:03:51.332Z,11.26
2019-03-17T04:06:26.534Z,11.26
2019-03-17T04:08:49.531Z,11.10
2019-03-17T04:11:17.740Z,11.12
2019-03-17T04:13:45.962Z,11.02
2019-03-17T04:16:14.180Z,11.07
2019-03-17T04:18:42.398Z,11.05
2019-03-17T04:21:10.645Z,11.09
2019-03-17T04:23:38.860Z,11.08
2019-03-17T04:26:07.413Z,11.06
2019-03-17T04:28:35.628Z,11.06
2019-03-17T04:31:03.837Z,11.06
2019-03-17T04:33:32.057Z,11.17
2019-03-17T04:36:00.654Z,11.22
2019-03-17T04:38:28.860Z,11.16
2019-03-17T04:40:57.090Z,11.22
2019-03-17T04:43:25.374Z,11.32
2019-03-17T04:45:53.597Z,11.33
2019-03-17T04:48:21.815Z,11.39
2019-03-17T04:50:50.032Z,11.41
2019-03-17T04:53:18.326Z,11.50
2019-03-17T04:55:46.623Z,11.50
2019-03-17T04:58:14.842Z,11.57
2019-03-17T05:00:43.070Z,11.61
2019-03-17T05:03:11.286Z,11.64
2019-03-17T05:05:39.493Z,11.68
2019-03-17T05:08:07.707Z,11.66
2019-03-17T05:10:35.913Z,11.64
2019-03-17T05:13:04.134Z,11.58
2019-03-17T05:15:32.349Z,11.50
2019-03-17T05:18:00.564Z,11.54
2019-03-17T05:20:28.784Z,11.51
2019-03-17T05:22:57.004Z,11.54
2019-03-17T05:25:25.223Z,11.29
2019-03-17T05:27:53.471Z,11.29
2019-03-17T05:30:21.685Z,11.28
2019-03-17T05:32:49.910Z,11.33
2019-03-17T05:35:18.149Z,11.25
2019-03-17T05:37:46.361Z,11.16
2019-03-17T05:40:14.577Z,11.19
2019-03-17T05:42:42.792Z,11.11
2019-03-17T05:45:11.018Z,11.09
2019-03-17T05:47:39.227Z,11.15
2019-03-17T05:50:09.288Z,11.05
2019-03-17T05:52:37.856Z,11.00
2019-03-17T05:55:08.308Z,10.95
2019-03-17T05:57:36.527Z,11.02
2019-03-17T06:00:07.845Z,10.98
2019-03-17T06:02:36.077Z,10.98
2019-03-17T06:05:05.736Z,11.00
2019-03-17T06:07:33.945Z,11.00
2019-03-17T06:10:02.365Z,11.00
2019-03-17T06:12:30.581Z,11.00
2019-03-17T06:14:58.798Z,10.89
2019-03-17T06:17:27.033Z,10.98
2019-03-17T06:19:55.245Z,11.02
2019-03-17T06:22:23.468Z,11.01
2019-03-17T06:24:51.679Z,10.94
2019-03-17T06:27:19.907Z,11.03
2019-03-17T06:29:48.115Z,11.00
2019-03-17T06:32:16.321Z,10.95
2019-03-17T06:34:44.529Z,10.89
2019-03-17T06:37:12.774Z,10.95
2019-03-17T06:39:40.972Z,10.96
2019-03-17T06:42:09.186Z,10.98
2019-03-17T06:44:38.158Z,10.90
2019-03-17T06:47:06.379Z,10.55
2019-03-17T06:49:34.582Z,10.42
2019-03-17T06:52:02.802Z,10.28
2019-03-17T06:54:31.003Z,10.04
2019-03-17T06:56:59.223Z,9.81
2019-03-17T06:59:27.426Z,9.61
2019-03-17T07:01:55.627Z,9.45
2019-03-17T07:04:23.832Z,9.35
2019-03-17T07:06:52.062Z,9.20
2019-03-17T07:09:20.255Z,9.13
2019-03-17T07:11:48.471Z,9.03
2019-03-17T07:14:16.680Z,8.96
2019-03-17T07:16:44.893Z,8.91
2019-03-17T07:19:13.092Z,8.86
2019-03-17T07:21:41.291Z,8.81
2019-03-17T07:24:09.635Z,8.80
2019-03-17T07:26:38.397Z,8.80
2019-03-17T07:29:06.593Z,8.82
2019-03-17T07:31:34.826Z,8.78
2019-03-17T07:34:03.045Z,8.79
2019-03-17T07:36:31.246Z,8.68
2019-03-17T07:39:11.244Z,8.63
2019-03-17T07:41:29.415Z,8.65
2019-03-17T07:43:57.658Z,8.59
2019-03-17T07:46:26.037Z,8.49
2019-03-17T07:48:54.243Z,8.43
2019-03-17T07:51:22.446Z,8.44
2019-03-17T07:53:50.646Z,8.41
2019-03-17T07:56:19.068Z,8.40
2019-03-17T07:58:47.261Z,8.34
2019-03-17T08:01:15.473Z,8.34
2019-03-17T08:03:43.681Z,8.31
2019-03-17T08:06:11.886Z,8.34
2019-03-17T08:08:40.225Z,8.39
2019-03-17T08:11:08.692Z,8.40
2019-03-17T08:13:36.893Z,8.24
2019-03-17T08:16:05.094Z,8.42
2019-03-17T08:18:33.304Z,8.46
2019-03-17T08:21:01.538Z,8.51
2019-03-17T08:23:29.756Z,8.55
2019-03-17T08:25:57.964Z,8.58
2019-03-17T08:28:26.198Z,8.63
2019-03-17T08:30:54.456Z,8.63
2019-03-17T08:33:22.660Z,8.64
2019-03-17T08:35:50.889Z,8.68
2019-03-17T08:38:22.182Z,8.74
2019-03-17T08:40:49.015Z,8.77
2019-03-17T08:43:17.224Z,8.86
2019-03-17T08:45:45.433Z,8.84
2019-03-17T08:48:13.629Z,8.90
2019-03-17T08:50:41.874Z,8.96
2019-03-17T08:53:10.084Z,9.03
2019-03-17T08:55:39.022Z,9.11
2019-03-17T08:58:07.234Z,9.01
2019-03-17T09:00:35.439Z,9.12
2019-03-17T09:03:03.659Z,9.18
2019-03-17T09:05:31.868Z,9.12
2019-03-17T09:08:02.570Z,9.17
2019-03-17T09:10:30.842Z,9.19
2019-03-17T09:12:59.048Z,9.25
2019-03-17T09:15:28.736Z,9.27
2019-03-17T09:17:56.933Z,9.31
2019-03-17T09:20:26.940Z,9.25
2019-03-17T09:22:55.147Z,9.31
2019-03-17T09:25:23.351Z,9.31
2019-03-17T09:27:51.582Z,9.33
2019-03-17T09:30:19.784Z,9.33
2019-03-17T09:32:47.993Z,9.34
2019-03-17T09:35:16.195Z,9.32
2019-03-17T09:37:44.404Z,9.33
2019-03-17T09:40:13.845Z,9.31
2019-03-17T09:42:42.087Z,9.39
2019-03-17T09:45:11.860Z,9.30
2019-03-17T09:47:41.380Z,9.37
2019-03-17T09:50:18.884Z,9.37
2019-03-17T09:52:47.093Z,9.39
2019-03-17T09:55:15.309Z,9.34
2019-03-17T09:57:43.527Z,9.37
2019-03-17T10:00:21.720Z,9.41
2019-03-17T10:02:52.911Z,9.39
2019-03-17T10:05:23.124Z,9.40
2019-03-17T10:07:51.328Z,9.48
2019-03-17T10:10:23.861Z,9.53
2019-03-17T10:12:52.065Z,9.59
2019-03-17T10:15:20.618Z,9.67
2019-03-17T10:17:48.817Z,9.69
2019-03-17T10:20:19.335Z,9.75
2019-03-17T10:22:48.758Z,9.85
2019-03-17T10:25:49.335Z,10.01
2019-03-17T10:32:37.713Z,10.10
2019-03-17T10:35:05.998Z,10.18
2019-03-17T10:37:34.221Z,10.34
2019-03-17T10:40:02.432Z,10.40
2019-03-17T10:42:30.650Z,10.47
2019-03-17T10:44:58.855Z,10.50
2019-03-17T10:47:27.264Z,10.55
2019-03-17T10:49:55.478Z,10.62
2019-03-17T10:52:23.687Z,10.60
2019-03-17T10:54:51.908Z,10.66
2019-03-17T10:57:20.129Z,10.69
2019-03-17T10:59:48.327Z,10.77
2019-03-17T11:02:16.558Z,10.94
2019-03-17T11:04:44.789Z,11.05
2019-03-17T11:07:13.010Z,11.22
2019-03-17T11:09:41.210Z,11.18
2019-03-17T11:12:09.979Z,11.30
2019-03-17T11:14:38.285Z,11.19
2019-03-17T11:17:06.485Z,11.49
2019-03-17T11:19:34.705Z,11.54
2019-03-17T11:22:02.912Z,11.75
2019-03-17T11:24:31.291Z,11.87
2019-03-17T11:26:59.496Z,12.09
2019-03-17T11:29:27.701Z,12.16
2019-03-17T11:31:55.965Z,12.31
2019-03-17T11:34:24.178Z,12.56
2019-03-17T11:36:52.402Z,12.42
2019-03-17T11:39:20.609Z,12.37
2019-03-17T11:41:48.826Z,12.31
2019-03-17T11:44:17.023Z,12.27
2019-03-17T11:46:45.243Z,12.13
2019-03-17T11:49:13.467Z,11.99
2019-03-17T11:51:41.704Z,11.74
2019-03-17T11:54:10.396Z,11.64
2019-03-17T11:56:38.604Z,11.55
2019-03-17T11:59:06.828Z,11.72
2019-03-17T12:01:35.039Z,11.91
2019-03-17T12:04:03.256Z,12.07
2019-03-17T12:06:31.462Z,12.20
2019-03-17T12:08:59.675Z,12.21
2019-03-17T12:11:27.893Z,12.30
2019-03-17T12:13:56.116Z,12.19
2019-03-17T12:16:24.330Z,12.14
2019-03-17T12:18:52.543Z,12.07
2019-03-17T12:21:20.772Z,11.95
2019-03-17T12:23:49.013Z,11.79
2019-03-17T12:26:17.226Z,11.84
2019-03-17T12:28:45.468Z,11.74
2019-03-17T12:31:13.647Z,11.66
2019-03-17T12:33:41.878Z,11.66
2019-03-17T12:36:10.598Z,11.63
2019-03-17T12:38:38.805Z,11.59
2019-03-17T12:41:07.020Z,11.77
2019-03-17T12:43:35.243Z,11.93
2019-03-17T12:46:03.466Z,11.98
2019-03-17T12:48:31.692Z,12.09
2019-03-17T12:50:59.932Z,12.26
2019-03-17T12:53:28.134Z,12.36
2019-03-17T12:55:56.339Z,12.65
2019-03-17T12:58:24.543Z,12.84
2019-03-17T13:00:52.752Z,13.12
2019-03-17T13:03:20.964Z,12.97
2019-03-17T13:05:49.167Z,13.29
2019-03-17T13:08:17.395Z,13.61
2019-03-17T13:10:45.602Z,13.67
2019-03-17T13:13:13.851Z,13.49
2019-03-17T13:15:42.071Z,13.52
2019-03-17T13:18:10.856Z,13.20
2019-03-17T13:20:39.076Z,13.09
2019-03-17T13:23:07.275Z,12.96
2019-03-17T13:25:35.518Z,12.68
2019-03-17T13:28:03.723Z,12.46
2019-03-17T13:30:31.939Z,12.38
2019-03-17T13:33:00.150Z,12.25
2019-03-17T13:35:28.470Z,12.08
2019-03-17T13:37:56.693Z,11.94
2019-03-17T13:40:29.353Z,11.80
2019-03-17T13:42:54.953Z,11.68
2019-03-17T13:45:23.152Z,11.67
2019-03-17T13:47:53.071Z,11.58
2019-03-17T13:50:22.834Z,11.59
2019-03-17T13:52:51.047Z,11.43
2019-03-17T13:55:19.249Z,11.48
2019-03-17T13:57:50.718Z,11.45
2019-03-17T14:00:18.947Z,11.46
2019-03-17T14:02:47.165Z,11.39
2019-03-17T14:05:15.372Z,11.39
2019-03-17T14:07:43.599Z,11.27
2019-03-17T14:10:16.585Z,11.34
2019-03-17T14:12:44.797Z,11.45
2019-03-17T14:15:16.804Z,11.55
2019-03-17T14:17:45.044Z,11.64
2019-03-17T14:20:20.410Z,11.66
2019-03-17T14:22:47.431Z,11.52
2019-03-17T14:25:24.106Z,11.54
2019-03-17T14:27:52.327Z,11.47
2019-03-17T14:30:20.833Z,11.42
2019-03-17T14:32:49.038Z,11.38
2019-03-17T14:35:17.248Z,11.32
2019-03-17T14:37:45.490Z,11.20
2019-03-17T14:40:16.989Z,11.11
2019-03-17T14:42:46.773Z,10.99
2019-03-17T14:45:16.130Z,10.87
2019-03-17T14:47:44.401Z,10.81
2019-03-17T14:50:20.777Z,10.71
2019-03-17T14:52:49.002Z,10.67
2019-03-17T14:55:17.244Z,10.65
2019-03-17T14:57:45.438Z,10.57
2019-03-17T15:00:16.914Z,10.60
2019-03-17T15:02:45.460Z,10.62
2019-03-17T15:05:13.676Z,10.69
2019-03-17T15:07:41.897Z,10.74
2019-03-17T15:10:13.404Z,10.74
2019-03-17T15:12:41.619Z,10.81
2019-03-17T15:15:12.372Z,10.81
2019-03-17T15:17:41.653Z,10.71
2019-03-17T15:20:13.122Z,10.53
2019-03-17T15:22:41.623Z,10.40
2019-03-17T15:25:11.098Z,10.19
2019-03-17T15:27:41.650Z,9.99
2019-03-17T15:30:25.514Z,9.76
2019-03-17T15:32:53.746Z,9.65
2019-03-17T15:35:21.947Z,9.51
2019-03-17T15:37:50.148Z,9.43
2019-03-17T15:40:21.750Z,9.32
2019-03-17T15:42:50.019Z,9.25
2019-03-17T15:45:24.927Z,9.26
2019-03-17T15:47:53.130Z,9.25
2019-03-17T15:50:26.714Z,9.27
2019-03-17T15:52:54.934Z,9.33
2019-03-17T15:55:23.144Z,9.42
2019-03-17T15:57:51.344Z,9.50
2019-03-17T16:00:25.518Z,9.59
2019-03-17T16:02:50.643Z,9.59
2019-03-17T16:05:19.180Z,9.88
2019-03-17T16:07:47.633Z,9.74
2019-03-17T16:10:20.377Z,9.77
2019-03-17T16:12:48.858Z,9.85
2019-03-17T16:15:17.143Z,10.00
2019-03-17T16:17:45.347Z,10.09
2019-03-17T16:20:23.477Z,10.15
2019-03-17T16:22:51.754Z,10.25
2019-03-17T16:25:24.213Z,10.28
2019-03-17T16:27:52.429Z,10.29
2019-03-17T16:30:24.705Z,10.31
2019-03-17T16:32:52.945Z,10.29
2019-03-17T16:35:21.219Z,10.28
2019-03-17T16:37:49.436Z,10.30
2019-03-17T16:40:25.800Z,10.27
2019-03-17T16:42:54.281Z,10.25
2019-03-17T16:45:22.724Z,10.23
2019-03-17T16:47:50.927Z,10.16
2019-03-17T16:50:20.581Z,10.09
2019-03-17T16:52:48.803Z,10.06
2019-03-17T16:55:17.026Z,10.01
2019-03-17T16:57:45.225Z,9.97
2019-03-17T17:00:21.229Z,9.74
2019-03-17T17:02:49.870Z,9.71
2019-03-17T17:05:20.271Z,9.61
2019-03-17T17:07:48.558Z,9.42
2019-03-17T17:10:19.163Z,9.39
2019-03-17T17:12:47.570Z,9.28
2019-03-17T17:15:23.924Z,9.21
2019-03-17T17:17:52.197Z,9.13
2019-03-17T17:20:29.322Z,9.02
2019-03-17T17:22:57.518Z,9.00
2019-03-17T17:25:25.719Z,8.92
2019-03-17T17:27:53.917Z,8.93
2019-03-17T17:30:22.129Z,8.90
2019-03-17T17:32:50.340Z,8.87
2019-03-17T17:35:18.573Z,8.81
2019-03-17T17:37:46.802Z,8.80
2019-03-17T17:40:17.553Z,8.87
2019-03-17T17:42:45.790Z,8.89
2019-03-17T17:45:15.855Z,8.87
2019-03-17T17:47:44.178Z,8.88
2019-03-17T17:50:14.572Z,8.90
2019-03-17T17:52:42.763Z,8.88
2019-03-17T17:55:10.972Z,8.90
2019-03-17T17:57:39.183Z,8.85
2019-03-17T18:00:19.023Z,8.86
2019-03-17T18:02:47.241Z,8.82
2019-03-17T18:05:15.463Z,8.80
2019-03-17T18:07:43.670Z,8.76
2019-03-17T18:10:13.955Z,8.74
2019-03-17T18:12:43.202Z,8.60
2019-03-17T18:15:14.441Z,8.74
2019-03-17T18:17:42.239Z,8.66
2019-03-17T18:20:12.227Z,8.75
2019-03-17T18:22:40.433Z,8.67
2019-03-17T18:25:11.733Z,8.66
2019-03-17T18:27:39.939Z,8.60
2019-03-17T18:30:13.681Z,8.58
2019-03-17T18:32:41.921Z,8.55
2019-03-17T18:35:10.786Z,8.52
2019-03-17T18:37:38.983Z,8.52
2019-03-17T18:40:15.744Z,8.47
2019-03-17T18:42:43.963Z,8.47
2019-03-17T18:45:32.531Z,8.36
2019-03-17T18:48:00.739Z,8.39
2019-03-17T18:50:28.945Z,8.40
2019-03-17T18:52:57.151Z,8.34
2019-03-17T18:55:25.352Z,8.34
2019-03-17T18:57:53.568Z,8.33
2019-03-17T19:00:23.038Z,8.32
2019-03-17T19:02:51.237Z,8.31
2019-03-17T19:05:20.405Z,8.30
2019-03-17T19:07:48.746Z,8.27
2019-03-17T19:10:23.167Z,8.24
2019-03-17T19:12:51.375Z,8.19
2019-03-17T19:15:20.523Z,8.15
2019-03-17T19:17:48.727Z,8.19
2019-03-17T19:20:17.995Z,8.12
2019-03-17T19:22:46.212Z,8.14
2019-03-17T19:25:16.626Z,8.10
2019-03-17T19:27:44.864Z,8.10
2019-03-17T19:30:22.355Z,8.04
2019-03-17T19:32:50.582Z,7.85
2019-03-17T19:35:18.809Z,7.94
2019-03-17T19:37:47.021Z,7.95
2019-03-17T19:40:16.534Z,7.92
2019-03-17T19:42:57.455Z,7.87
2019-03-17T19:45:14.703Z,7.80
2019-03-17T19:47:43.636Z,7.81
2019-03-17T19:50:18.774Z,7.72
2019-03-17T19:52:46.994Z,7.72
2019-03-17T19:55:15.270Z,7.72
2019-03-17T19:57:43.736Z,7.68
2019-03-17T20:00:16.420Z,7.57
2019-03-17T20:02:47.393Z,7.54
2019-03-17T20:05:14.616Z,7.52
2019-03-17T20:07:43.874Z,7.50
2019-03-17T20:10:23.491Z,7.26
2019-03-17T20:12:51.703Z,7.43
2019-03-17T20:15:19.942Z,7.38
2019-03-17T20:17:48.316Z,7.30
2019-03-17T20:20:16.540Z,7.24
2019-03-17T20:22:44.766Z,7.23
2019-03-17T20:25:13.869Z,7.20
2019-03-17T20:27:42.071Z,7.12
2019-03-17T20:30:12.783Z,7.09
2019-03-17T20:32:41.001Z,7.05
2019-03-17T20:35:11.084Z,6.98
2019-03-17T20:37:39.300Z,7.03
2019-03-17T20:40:10.034Z,6.98
2019-03-17T20:42:37.612Z,6.99
2019-03-17T20:45:08.033Z,7.07
2019-03-17T20:47:36.256Z,6.92
2019-03-17T20:50:10.059Z,6.93
2019-03-17T20:52:38.271Z,6.89
2019-03-17T20:55:08.525Z,6.89
2019-03-17T20:57:36.756Z,6.81
2019-03-17T21:00:10.839Z,6.85
2019-03-17T21:02:39.307Z,6.86
2019-03-17T21:05:09.126Z,6.78
2019-03-17T21:07:37.327Z,6.79
2019-03-17T21:10:13.561Z,6.83
2019-03-17T21:12:41.800Z,6.77
2019-03-17T21:15:11.849Z,6.78
2019-03-17T21:17:40.071Z,6.79
2019-03-17T21:20:16.890Z,6.74
2019-03-17T21:22:45.133Z,6.70
2019-03-17T21:25:13.347Z,6.73
2019-03-17T21:27:41.604Z,6.77
2019-03-17T21:30:30.653Z,6.75
2019-03-17T21:32:58.873Z,6.70
2019-03-17T21:35:27.087Z,6.79
2019-03-17T21:37:55.297Z,6.73
2019-03-17T21:40:23.519Z,6.65
2019-03-17T21:42:51.729Z,6.72
2019-03-17T21:45:19.964Z,6.69
2019-03-17T21:47:49.024Z,6.71
2019-03-17T21:50:20.727Z,6.71
2019-03-17T21:52:49.062Z,6.73
2019-03-17T21:55:17.309Z,6.63
2019-03-17T21:57:45.554Z,6.64
2019-03-17T22:00:17.604Z,6.50
2019-03-17T22:02:45.821Z,6.58
2019-03-17T22:05:14.131Z,6.63
2019-03-17T22:07:49.266Z,6.63
2019-03-17T22:10:22.161Z,6.66
2019-03-17T22:12:51.327Z,6.59
2019-03-17T22:15:19.545Z,6.63
2019-03-17T22:17:47.779Z,6.62
2019-03-17T22:20:16.164Z,6.64
2019-03-17T22:22:44.378Z,6.63
2019-03-17T22:25:13.624Z,6.60
2019-03-17T22:27:41.843Z,6.59
2019-03-17T22:30:15.388Z,6.62
2019-03-17T22:32:43.607Z,6.64
2019-03-17T22:35:11.844Z,6.61
2019-03-17T22:37:40.048Z,6.60
2019-03-17T22:40:16.607Z,6.58
2019-03-17T22:42:44.836Z,6.53
2019-03-17T22:45:13.907Z,6.60
2019-03-17T22:47:42.118Z,6.64
2019-03-17T22:50:12.468Z,6.61
2019-03-17T22:52:40.677Z,6.55
2019-03-17T22:55:09.641Z,6.58
2019-03-17T22:57:37.855Z,6.52
2019-03-17T23:00:13.972Z,6.60
2019-03-17T23:02:42.175Z,6.73
2019-03-17T23:05:10.392Z,6.77
2019-03-17T23:07:38.661Z,6.82
2019-03-17T23:10:09.940Z,6.84
2019-03-17T23:12:38.168Z,6.87
2019-03-17T23:15:08.812Z,6.87
2019-03-17T23:17:37.057Z,6.99
2019-03-17T23:20:07.855Z,7.04
2019-03-17T23:22:36.075Z,6.99
2019-03-17T23:25:05.421Z,6.99
2019-03-17T23:27:33.658Z,7.01
2019-03-17T23:30:01.870Z,6.94
2019-03-17T23:32:30.095Z,6.94
2019-03-17T23:34:58.310Z,7.06
2019-03-17T23:37:26.548Z,6.78
2019-03-17T23:39:54.776Z,6.72
2019-03-17T23:42:22.985Z,6.61
2019-03-17T23:44:51.201Z,6.62
2019-03-17T23:47:19.503Z,6.45
2019-03-17T23:49:47.715Z,6.43
2019-03-17T23:52:15.919Z,6.42
2019-03-17T23:54:44.137Z,6.37
2019-03-17T23:57:12.359Z,6.42
2019-03-17T23:59:40.573Z,6.36
